createdAt,value
2023-05-14T00:00:36.924Z,99770.44
2023-05-14T00:03:04.357Z,99764.22
2023-05-14T00:05:31.306Z,99766.91
2023-05-14T00:07:58.143Z,99760.63
2023-05-14T00:10:25.369Z,99763.75
2023-05-14T00:12:52.300Z,99762.31
2023-05-14T00:15:19.401Z,99753.81
2023-05-14T00:17:46.594Z,99753.16
2023-05-14T00:20:13.557Z,99745.28
2023-05-14T00:22:40.706Z,99746.13
2023-05-14T00:25:09.029Z,99755.88
2023-05-14T00:27:37.986Z,99749.84
2023-05-14T00:30:07.067Z,99750.84
2023-05-14T00:32:34.341Z,99744.25
2023-05-14T00:35:03.267Z,99747.78
2023-05-14T00:37:30.190Z,99738.69
2023-05-14T00:39:57.238Z,99742.75
2023-05-14T00:42:24.037Z,99745.06
2023-05-14T00:44:50.820Z,99750.63
2023-05-14T00:47:17.593Z,99741.28
2023-05-14T00:49:44.491Z,99747.47
2023-05-14T00:52:12.055Z,99749.78
2023-05-14T00:54:39.447Z,99748.56
2023-05-14T00:57:07.005Z,99744.81
2023-05-14T00:59:33.916Z,99740.19
2023-05-14T01:02:00.815Z,99740.81
2023-05-14T01:04:27.808Z,99736.47
2023-05-14T01:07:30.720Z,99735.22
2023-05-14T01:10:16.149Z,99742.25
2023-05-14T01:12:45.761Z,99744.53
2023-05-14T01:15:26.722Z,99743.69
2023-05-14T01:18:14.627Z,99732.88
2023-05-14T01:20:41.372Z,99734.13
2023-05-14T01:23:08.150Z,99736.00
2023-05-14T01:25:35.696Z,99727.06
2023-05-14T01:28:11.600Z,99724.75
2023-05-14T01:31:02.418Z,99721.25
2023-05-14T01:33:32.658Z,99718.78
2023-05-14T01:36:00.081Z,99722.28
2023-05-14T01:38:31.039Z,99718.97
2023-05-14T01:40:58.376Z,99726.09
2023-05-14T01:43:25.559Z,99725.66
2023-05-14T01:45:52.373Z,99722.97
2023-05-14T01:48:19.164Z,99717.19
2023-05-14T01:50:46.030Z,99715.84
2023-05-14T01:53:12.908Z,99714.81
2023-05-14T01:55:39.704Z,99722.72
2023-05-14T01:58:06.443Z,99720.91
2023-05-14T02:00:33.666Z,99716.66
2023-05-14T02:03:00.384Z,99714.03
2023-05-14T02:05:27.161Z,99712.38
2023-05-14T02:07:54.054Z,99711.25
2023-05-14T02:10:21.128Z,99712.69
2023-05-14T02:12:48.048Z,99717.09
2023-05-14T02:15:14.768Z,99710.28
2023-05-14T02:17:41.658Z,99711.31
2023-05-14T02:20:10.535Z,99712.91
2023-05-14T02:22:37.653Z,99709.59
2023-05-14T02:25:04.701Z,99708.16
2023-05-14T02:27:31.910Z,99708.75
2023-05-14T02:30:01.021Z,99707.47
2023-05-14T02:32:28.480Z,99706.94
2023-05-14T02:34:55.483Z,99710.00
2023-05-14T02:37:22.366Z,99718.41
2023-05-14T02:39:49.738Z,99725.66
2023-05-14T02:42:16.480Z,99718.66
2023-05-14T02:44:43.253Z,99716.41
2023-05-14T02:47:10.079Z,99713.88
2023-05-14T02:49:36.926Z,99717.63
2023-05-14T02:52:03.835Z,99712.63
2023-05-14T02:54:30.582Z,99710.94
2023-05-14T02:56:57.357Z,99717.97
2023-05-14T02:59:25.087Z,99706.44
2023-05-14T03:01:52.581Z,99715.63
2023-05-14T03:04:19.917Z,99709.06
2023-05-14T03:06:46.719Z,99711.19
2023-05-14T03:09:13.577Z,99710.25
2023-05-14T03:11:40.509Z,99713.97
2023-05-14T03:14:07.240Z,99714.81
2023-05-14T03:16:34.017Z,99711.94
2023-05-14T03:19:00.855Z,99716.94
2023-05-14T03:21:27.805Z,99709.78
2023-05-14T03:23:54.583Z,99707.53
2023-05-14T03:26:21.848Z,99703.00
2023-05-14T03:28:49.051Z,99707.34
2023-05-14T03:31:16.028Z,99706.75
2023-05-14T03:33:42.915Z,99708.66
2023-05-14T03:36:09.833Z,99703.53
2023-05-14T03:38:37.113Z,99709.75
2023-05-14T03:41:03.955Z,99703.69
2023-05-14T03:43:30.720Z,99715.06
2023-05-14T03:45:57.492Z,99706.84
2023-05-14T03:48:24.259Z,99709.56
2023-05-14T03:50:51.679Z,99707.78
2023-05-14T03:53:18.419Z,99706.75
2023-05-14T03:55:45.151Z,99699.94
2023-05-14T03:58:14.504Z,99700.00
2023-05-14T04:00:44.612Z,99699.59
2023-05-14T04:03:12.142Z,99706.66
2023-05-14T04:05:39.029Z,99702.91
2023-05-14T04:08:06.111Z,99701.41
2023-05-14T04:10:32.919Z,99704.09
2023-05-14T04:12:59.681Z,99705.75
2023-05-14T04:15:26.746Z,99705.34
2023-05-14T04:17:53.583Z,99699.59
2023-05-14T04:20:20.410Z,99699.63
2023-05-14T04:22:47.184Z,99699.66
2023-05-14T04:25:14.006Z,99704.41
2023-05-14T04:27:40.851Z,99703.00
2023-05-14T04:30:08.720Z,99697.63
2023-05-14T04:32:35.713Z,99701.94
2023-05-14T04:35:02.918Z,99699.06
2023-05-14T04:37:29.681Z,99696.19
2023-05-14T04:39:56.476Z,99697.47
2023-05-14T04:42:23.278Z,99699.53
2023-05-14T04:44:49.992Z,99704.50
2023-05-14T04:47:16.981Z,99704.31
2023-05-14T04:49:43.782Z,99705.97
2023-05-14T04:52:10.804Z,99701.41
2023-05-14T04:54:37.592Z,99694.38
2023-05-14T04:57:04.601Z,99701.41
2023-05-14T04:59:31.569Z,99703.31
2023-05-14T05:01:58.448Z,99698.53
2023-05-14T05:04:26.595Z,99694.38
2023-05-14T05:06:53.419Z,99701.81
2023-05-14T05:09:20.161Z,99707.22
2023-05-14T05:11:46.918Z,99699.16
2023-05-14T05:14:13.758Z,99689.00
2023-05-14T05:16:40.644Z,99696.28
2023-05-14T05:19:07.450Z,99695.84
2023-05-14T05:21:34.577Z,99694.19
2023-05-14T05:24:01.324Z,99698.56
2023-05-14T05:26:28.316Z,99709.69
2023-05-14T05:28:55.069Z,99706.81
2023-05-14T05:31:21.867Z,99708.63
2023-05-14T05:33:48.740Z,99709.44
2023-05-14T05:36:15.505Z,99704.94
2023-05-14T05:38:42.474Z,99702.38
2023-05-14T05:41:09.245Z,99699.25
2023-05-14T05:43:36.013Z,99700.84
2023-05-14T05:46:02.978Z,99697.69
2023-05-14T05:48:29.813Z,99693.66
2023-05-14T05:50:56.657Z,99698.16
2023-05-14T05:53:23.430Z,99695.19
2023-05-14T05:55:51.945Z,99698.09
2023-05-14T05:58:19.677Z,99699.03
2023-05-14T06:00:47.210Z,99694.34
2023-05-14T06:03:14.309Z,99694.38
2023-05-14T06:05:41.417Z,99688.91
2023-05-14T06:08:08.284Z,99694.47
2023-05-14T06:10:36.475Z,99693.44
2023-05-14T06:13:03.423Z,99701.31
2023-05-14T06:15:30.242Z,99690.41
2023-05-14T06:17:57.149Z,99693.31
2023-05-14T06:20:24.213Z,99699.50
2023-05-14T06:22:51.246Z,99692.22
2023-05-14T06:25:18.249Z,99697.72
2023-05-14T06:27:45.075Z,99691.78
2023-05-14T06:30:12.661Z,99693.19
2023-05-14T06:32:39.522Z,99693.72
2023-05-14T06:35:06.934Z,99684.25
2023-05-14T06:37:33.740Z,99681.28
2023-05-14T06:40:01.876Z,99687.84
2023-05-14T06:42:28.650Z,99683.66
2023-05-14T06:44:56.205Z,99678.34
2023-05-14T06:47:23.149Z,99681.47
2023-05-14T06:49:50.199Z,99675.97
2023-05-14T06:52:17.220Z,99670.94
2023-05-14T06:54:43.993Z,99663.56
2023-05-14T06:57:10.810Z,99663.44
2023-05-14T06:59:37.532Z,99663.28
2023-05-14T07:02:04.388Z,99666.75
2023-05-14T07:04:31.200Z,99673.16
2023-05-14T07:06:58.024Z,99669.16
2023-05-14T07:09:24.907Z,99673.69
2023-05-14T07:11:51.672Z,99666.78
2023-05-14T07:14:18.447Z,99674.16
2023-05-14T07:16:47.174Z,99670.22
2023-05-14T07:19:14.200Z,99674.72
2023-05-14T07:21:41.115Z,99663.75
2023-05-14T07:24:08.032Z,99658.94
2023-05-14T07:26:35.021Z,99657.03
2023-05-14T07:29:01.842Z,99651.25
2023-05-14T07:31:28.578Z,99648.03
2023-05-14T07:33:55.617Z,99639.13
2023-05-14T07:36:23.422Z,99640.28
2023-05-14T07:38:50.218Z,99643.84
2023-05-14T07:41:17.023Z,99642.00
2023-05-14T07:43:43.957Z,99634.22
2023-05-14T07:46:10.881Z,99644.63
2023-05-14T07:48:37.748Z,99639.28
2023-05-14T07:51:04.569Z,99646.16
2023-05-14T07:53:31.633Z,99640.50
2023-05-14T07:56:00.227Z,99646.03
2023-05-14T07:58:28.299Z,99636.97
2023-05-14T08:00:55.255Z,99642.53
2023-05-14T08:03:22.296Z,99635.16
2023-05-14T08:05:49.186Z,99631.66
2023-05-14T08:08:16.452Z,99636.56
2023-05-14T08:10:43.250Z,99637.28
2023-05-14T08:13:10.031Z,99633.75
2023-05-14T08:15:37.363Z,99632.34
2023-05-14T08:18:04.175Z,99627.25
2023-05-14T08:20:31.368Z,99624.47
2023-05-14T08:22:58.629Z,99624.41
2023-05-14T08:25:25.549Z,99630.38
2023-05-14T08:27:53.907Z,99626.09
2023-05-14T08:30:22.334Z,99626.91
2023-05-14T08:32:49.503Z,99625.75
2023-05-14T08:35:17.631Z,99622.94
2023-05-14T08:37:44.507Z,99624.09
2023-05-14T08:40:12.197Z,99624.84
2023-05-14T08:42:43.459Z,99616.38
2023-05-14T08:45:21.358Z,99616.75
2023-05-14T08:47:53.180Z,99623.38
2023-05-14T08:50:22.786Z,99611.44
2023-05-14T08:52:50.679Z,99612.25
2023-05-14T08:55:17.416Z,99616.00
2023-05-14T08:57:44.519Z,99619.84
2023-05-14T09:00:12.178Z,99611.50
2023-05-14T09:02:40.817Z,99604.00
2023-05-14T09:05:09.520Z,99615.38
2023-05-14T09:07:36.730Z,99606.13
2023-05-14T09:10:04.229Z,99611.75
2023-05-14T09:12:31.587Z,99609.72
2023-05-14T09:14:59.135Z,99611.59
2023-05-14T09:17:30.250Z,99613.22
2023-05-14T09:19:57.122Z,99607.16
2023-05-14T09:22:23.856Z,99606.13
2023-05-14T09:25:05.448Z,99601.34
2023-05-14T09:27:33.454Z,99601.50
2023-05-14T09:30:11.493Z,99605.19
2023-05-14T09:32:46.455Z,99596.44
2023-05-14T09:35:20.989Z,99603.13
2023-05-14T09:37:52.447Z,99599.34
2023-05-14T09:40:21.236Z,99595.84
2023-05-14T09:42:49.406Z,99594.94
2023-05-14T09:45:16.912Z,99606.00
2023-05-14T09:47:45.636Z,99597.56
2023-05-14T09:50:12.812Z,99607.72
2023-05-14T09:52:39.778Z,99599.72
2023-05-14T09:55:07.285Z,99599.38
2023-05-14T09:57:34.797Z,99606.25
2023-05-14T10:00:01.622Z,99602.06
2023-05-14T10:02:38.268Z,99588.91
2023-05-14T10:05:07.221Z,99595.34
2023-05-14T10:07:39.293Z,99599.38
2023-05-14T10:10:09.804Z,99600.38
2023-05-14T10:12:39.804Z,99593.06
2023-05-14T10:15:23.980Z,99591.25
2023-05-14T10:17:57.370Z,99591.78
2023-05-14T10:20:25.508Z,99585.25
2023-05-14T10:22:52.472Z,99585.81
2023-05-14T10:25:19.478Z,99586.19
2023-05-14T10:27:46.290Z,99588.34
2023-05-14T10:30:13.502Z,99583.56
2023-05-14T10:32:42.163Z,99580.84
2023-05-14T10:35:23.055Z,99584.66
2023-05-14T10:37:51.890Z,99581.28
2023-05-14T10:40:19.595Z,99576.34
2023-05-14T10:42:47.154Z,99580.34
2023-05-14T10:45:15.830Z,99571.84
2023-05-14T10:47:45.792Z,99576.09
2023-05-14T10:50:15.296Z,99575.41
2023-05-14T10:52:46.683Z,99565.84
2023-05-14T10:55:15.533Z,99565.66
2023-05-14T10:57:46.847Z,99570.78
2023-05-14T11:00:15.065Z,99561.59
2023-05-14T11:02:43.828Z,99567.91
2023-05-14T11:05:17.506Z,99561.91
2023-05-14T11:07:49.905Z,99566.38
2023-05-14T11:10:18.691Z,99555.19
2023-05-14T11:12:47.385Z,99559.34
2023-05-14T11:15:22.045Z,99554.56
2023-05-14T11:17:50.602Z,99559.19
2023-05-14T11:20:18.195Z,99552.66
2023-05-14T11:22:47.025Z,99553.38
2023-05-14T11:25:15.157Z,99547.91
2023-05-14T11:27:45.568Z,99539.16
2023-05-14T11:30:22.098Z,99535.66
2023-05-14T11:32:50.617Z,99531.84
2023-05-14T11:35:18.284Z,99534.09
2023-05-14T11:37:51.980Z,99528.31
2023-05-14T11:40:19.022Z,99528.31
2023-05-14T11:42:46.577Z,99531.84
2023-05-14T11:45:14.658Z,99528.31
2023-05-14T11:47:42.982Z,99531.34
2023-05-14T11:50:10.246Z,99521.38
2023-05-14T11:52:41.629Z,99528.63
2023-05-14T11:55:14.390Z,99521.81
2023-05-14T11:57:41.589Z,99518.66
2023-05-14T12:00:09.592Z,99514.19
2023-05-14T12:02:37.515Z,99519.22
2023-05-14T12:05:07.458Z,99508.88
2023-05-14T12:07:34.288Z,99499.63
2023-05-14T12:10:03.944Z,99495.84
2023-05-14T12:12:36.312Z,99502.34
2023-05-14T12:15:11.556Z,99500.22
2023-05-14T12:17:38.637Z,99488.97
2023-05-14T12:20:10.672Z,99493.09
2023-05-14T12:22:37.755Z,99493.63
2023-05-14T12:25:05.264Z,99489.81
2023-05-14T12:27:32.101Z,99486.50
2023-05-14T12:32:41.242Z,99481.75
2023-05-14T12:35:09.078Z,99479.75
2023-05-14T12:37:37.625Z,99475.47
2023-05-14T12:40:10.592Z,99471.56
2023-05-14T12:42:37.944Z,99463.72
2023-05-14T12:45:08.219Z,99469.59
2023-05-14T12:47:35.403Z,99478.03
2023-05-14T12:50:02.833Z,99467.84
2023-05-14T12:54:59.435Z,99445.78
2023-05-14T12:57:27.930Z,99445.13
2023-05-14T12:59:55.447Z,99446.41
2023-05-14T13:02:22.215Z,99444.09
2023-05-14T13:04:49.032Z,99435.41
2023-05-14T13:07:15.881Z,99440.50
2023-05-14T13:09:43.026Z,99437.00
2023-05-14T13:12:10.018Z,99428.94
2023-05-14T13:14:36.878Z,99433.50
2023-05-14T13:17:05.218Z,99424.78
2023-05-14T13:19:32.053Z,99427.28
2023-05-14T13:21:58.778Z,99424.56
2023-05-14T13:24:25.554Z,99420.22
2023-05-14T13:26:52.357Z,99426.78
2023-05-14T13:29:19.093Z,99421.91
2023-05-14T13:31:45.996Z,99425.31
2023-05-14T13:34:13.343Z,99415.78
2023-05-14T13:36:40.957Z,99414.22
2023-05-14T13:39:07.777Z,99398.69
2023-05-14T13:41:38.134Z,99398.28
2023-05-14T13:44:05.365Z,99401.53
2023-05-14T13:46:32.286Z,99401.91
2023-05-14T13:48:59.076Z,99393.88
2023-05-14T13:51:25.938Z,99391.81
2023-05-14T13:56:19.726Z,99385.50
2023-05-14T13:58:46.492Z,99383.47
2023-05-14T14:01:13.273Z,99368.09
2023-05-14T14:03:40.027Z,99379.13
2023-05-14T14:06:06.949Z,99373.44
2023-05-14T14:08:33.724Z,99363.78
2023-05-14T14:11:00.560Z,99357.22
2023-05-14T14:13:28.037Z,99346.88
2023-05-14T14:15:54.890Z,99347.44
2023-05-14T14:18:21.798Z,99343.03
2023-05-14T14:20:48.651Z,99340.97
2023-05-14T14:23:15.482Z,99330.59
2023-05-14T14:25:42.271Z,99337.88
2023-05-14T14:28:09.071Z,99327.69
2023-05-14T14:30:35.918Z,99319.34
2023-05-14T14:33:02.658Z,99326.25
2023-05-14T14:35:29.488Z,99324.53
2023-05-14T14:37:56.363Z,99317.41
2023-05-14T14:40:24.161Z,99314.31
2023-05-14T14:42:51.064Z,99311.63
2023-05-14T14:45:18.270Z,99308.00
2023-05-14T14:47:46.555Z,99313.88
2023-05-14T14:50:13.940Z,99307.81
2023-05-14T14:52:45.621Z,99304.63
2023-05-14T14:55:12.824Z,99310.31
2023-05-14T14:57:39.705Z,99302.88
2023-05-14T15:00:07.981Z,99293.22
2023-05-14T15:02:35.053Z,99294.66
2023-05-14T15:05:02.273Z,99296.00
2023-05-14T15:07:33.152Z,99297.97
2023-05-14T15:09:59.944Z,99282.44
2023-05-14T15:12:26.691Z,99293.81
2023-05-14T15:14:53.449Z,99282.91
2023-05-14T15:17:20.243Z,99278.72
2023-05-14T15:19:47.814Z,99283.94
2023-05-14T15:22:14.640Z,99282.84
2023-05-14T15:24:41.349Z,99277.16
2023-05-14T15:27:08.093Z,99275.44
2023-05-14T15:29:34.902Z,99269.13
2023-05-14T15:32:02.617Z,99265.97
2023-05-14T15:34:29.589Z,99270.28
2023-05-14T15:36:56.320Z,99269.91
2023-05-14T15:39:23.232Z,99268.03
2023-05-14T15:41:50.539Z,99265.66
2023-05-14T15:44:17.379Z,99259.28
2023-05-14T15:46:44.379Z,99258.81
2023-05-14T15:49:11.559Z,99252.47
2023-05-14T15:51:38.717Z,99243.13
2023-05-14T15:54:05.797Z,99248.59
2023-05-14T15:56:32.953Z,99250.09
2023-05-14T15:59:00.078Z,99256.66
2023-05-14T16:01:27.244Z,99245.22
2023-05-14T16:03:54.679Z,99254.97
2023-05-14T16:06:21.730Z,99253.56
2023-05-14T16:08:49.792Z,99248.69
2023-05-14T16:11:16.653Z,99255.22
2023-05-14T16:13:43.854Z,99267.78
2023-05-14T16:16:11.285Z,99260.41
2023-05-14T16:18:39.297Z,99269.78
2023-05-14T16:21:06.560Z,99262.59
2023-05-14T16:23:33.635Z,99254.06
2023-05-14T16:26:00.647Z,99265.97
2023-05-14T16:28:27.458Z,99264.88
2023-05-14T16:30:55.463Z,99268.97
2023-05-14T16:33:22.415Z,99268.03
2023-05-14T16:35:50.715Z,99265.25
2023-05-14T16:38:19.472Z,99272.00
2023-05-14T16:40:46.529Z,99268.84
2023-05-14T16:43:13.409Z,99277.56
2023-05-14T16:45:40.616Z,99277.47
2023-05-14T16:48:07.738Z,99274.41
2023-05-14T16:50:34.611Z,99272.69
2023-05-14T16:53:01.527Z,99282.25
2023-05-14T16:55:28.289Z,99278.44
2023-05-14T16:57:55.184Z,99275.25
2023-05-14T17:00:21.961Z,99271.69
2023-05-14T17:02:50.147Z,99280.22
2023-05-14T17:05:17.386Z,99268.09
2023-05-14T17:07:44.240Z,99265.34
2023-05-14T17:10:11.581Z,99274.63
2023-05-14T17:12:38.427Z,99269.19
2023-05-14T17:15:07.437Z,99263.16
2023-05-14T17:17:35.335Z,99254.47
2023-05-14T17:20:02.261Z,99252.81
2023-05-14T17:22:29.152Z,99250.09
2023-05-14T17:24:56.048Z,99245.72
2023-05-14T17:27:22.861Z,99258.28
2023-05-14T17:29:52.672Z,99244.09
2023-05-14T17:32:19.511Z,99254.47
2023-05-14T17:34:46.582Z,99249.00
2023-05-14T17:37:13.381Z,99255.00
2023-05-14T17:39:40.163Z,99258.56
2023-05-14T17:42:07.248Z,99254.41
2023-05-14T17:44:34.184Z,99260.19
2023-05-14T17:47:01.181Z,99264.53
2023-05-14T17:49:28.028Z,99269.06
2023-05-14T17:51:54.755Z,99264.56
2023-05-14T17:54:21.514Z,99264.81
2023-05-14T17:56:51.483Z,99264.25
2023-05-14T17:59:18.295Z,99262.06
2023-05-14T18:01:45.206Z,99263.59
2023-05-14T18:04:12.177Z,99263.53
2023-05-14T18:06:39.205Z,99265.41
2023-05-14T18:09:06.013Z,99261.25
2023-05-14T18:11:34.394Z,99262.91
2023-05-14T18:14:01.552Z,99267.78
2023-05-14T18:16:29.999Z,99266.63
2023-05-14T18:18:57.013Z,99265.44
2023-05-14T18:21:24.190Z,99269.81
2023-05-14T18:23:51.130Z,99264.75
2023-05-14T18:26:18.003Z,99276.94
2023-05-14T18:28:44.846Z,99281.31
2023-05-14T18:31:11.725Z,99276.88
2023-05-14T18:33:38.571Z,99282.50
2023-05-14T18:36:06.094Z,99277.31
2023-05-14T18:38:35.745Z,99281.91
2023-05-14T18:41:02.738Z,99284.41
2023-05-14T18:43:29.557Z,99288.38
2023-05-14T18:45:56.452Z,99295.13
2023-05-14T18:48:23.719Z,99293.00
2023-05-14T18:50:50.459Z,99293.47
2023-05-14T18:53:17.405Z,99299.94
2023-05-14T18:55:44.966Z,99295.56
2023-05-14T18:58:12.372Z,99294.44
2023-05-14T19:00:39.247Z,99290.34
2023-05-14T19:03:06.230Z,99295.00
2023-05-14T19:05:33.114Z,99302.03
2023-05-14T19:08:01.156Z,99298.13
2023-05-14T19:10:28.053Z,99300.78
2023-05-14T19:12:54.971Z,99300.97
2023-05-14T19:15:21.925Z,99299.03
2023-05-14T19:17:49.344Z,99305.97
2023-05-14T19:20:16.302Z,99312.22
2023-05-14T19:22:43.288Z,99319.50
2023-05-14T19:25:11.411Z,99320.47
2023-05-14T19:27:38.968Z,99313.41
2023-05-14T19:30:06.551Z,99316.78
2023-05-14T19:32:33.505Z,99323.50
2023-05-14T19:35:00.274Z,99325.56
2023-05-14T19:37:27.108Z,99325.16
2023-05-14T19:39:53.913Z,99334.53
2023-05-14T19:42:20.729Z,99325.53
2023-05-14T19:44:47.540Z,99321.66
2023-05-14T19:47:14.669Z,99329.94
2023-05-14T19:49:41.622Z,99323.38
2023-05-14T19:52:08.477Z,99326.44
2023-05-14T19:54:35.211Z,99331.28
2023-05-14T19:57:02.067Z,99328.97
2023-05-14T19:59:30.027Z,99323.31
2023-05-14T20:01:57.177Z,99331.59
2023-05-14T20:04:26.263Z,99332.06
2023-05-14T20:06:53.031Z,99326.16
2023-05-14T20:09:20.358Z,99327.81
2023-05-14T20:11:47.220Z,99323.94
2023-05-14T20:14:14.444Z,99325.25
2023-05-14T20:16:42.150Z,99330.53
2023-05-14T20:19:09.329Z,99337.50
2023-05-14T20:21:36.110Z,99342.53
2023-05-14T20:24:03.107Z,99336.44
2023-05-14T20:26:29.926Z,99331.44
2023-05-14T20:28:56.695Z,99330.91
2023-05-14T20:31:23.640Z,99334.31
2023-05-14T20:33:50.886Z,99338.66
2023-05-14T20:36:17.734Z,99330.63
2023-05-14T20:38:44.856Z,99325.47
2023-05-14T20:41:11.635Z,99327.94
2023-05-14T20:43:38.409Z,99323.47
2023-05-14T20:46:07.527Z,99327.25
2023-05-14T20:48:34.408Z,99320.03
2023-05-14T20:51:01.939Z,99325.25
2023-05-14T20:53:29.069Z,99316.44
2023-05-14T20:55:56.056Z,99316.34
2023-05-14T20:58:22.963Z,99309.59
2023-05-14T21:00:49.896Z,99316.84
2023-05-14T21:03:16.906Z,99316.16
2023-05-14T21:05:43.984Z,99311.22
2023-05-14T21:08:11.691Z,99304.88
2023-05-14T21:10:38.491Z,99309.84
2023-05-14T21:13:05.256Z,99312.22
2023-05-14T21:15:32.870Z,99298.19
2023-05-14T21:17:59.889Z,99309.31
2023-05-14T21:20:26.732Z,99309.78
2023-05-14T21:22:53.503Z,99305.56
2023-05-14T21:25:20.332Z,99305.31
2023-05-14T21:27:47.207Z,99309.78
2023-05-14T21:30:14.433Z,99302.06
2023-05-14T21:32:41.326Z,99296.66
2023-05-14T21:35:08.483Z,99297.94
2023-05-14T21:37:35.251Z,99295.38
2023-05-14T21:40:02.035Z,99290.88
2023-05-14T21:42:28.880Z,99289.59
2023-05-14T21:44:55.619Z,99288.66
2023-05-14T21:47:22.522Z,99286.66
2023-05-14T21:49:49.377Z,99289.59
2023-05-14T21:52:16.559Z,99291.59
2023-05-14T21:54:43.363Z,99283.84
2023-05-14T21:57:10.130Z,99285.00
2023-05-14T21:59:37.381Z,99282.19
2023-05-14T22:02:07.411Z,99285.47
2023-05-14T22:04:35.505Z,99283.97
2023-05-14T22:07:02.403Z,99280.31
2023-05-14T22:09:29.297Z,99279.97
2023-05-14T22:11:57.302Z,99283.13
2023-05-14T22:14:24.128Z,99276.78
2023-05-14T22:16:51.079Z,99275.59
2023-05-14T22:19:17.958Z,99279.03
2023-05-14T22:21:44.825Z,99286.66
2023-05-14T22:24:11.562Z,99284.31
2023-05-14T22:26:38.261Z,99274.91
2023-05-14T22:29:05.024Z,99277.03
2023-05-14T22:31:31.812Z,99275.03
2023-05-14T22:33:58.568Z,99270.66
2023-05-14T22:36:25.483Z,99275.69
2023-05-14T22:38:52.314Z,99269.13
2023-05-14T22:41:19.136Z,99272.75
2023-05-14T22:43:48.856Z,99271.22
2023-05-14T22:46:16.217Z,99267.75
2023-05-14T22:48:42.957Z,99268.13
2023-05-14T22:51:09.708Z,99266.34
2023-05-14T22:53:36.589Z,99266.66
2023-05-14T22:56:03.423Z,99260.66
2023-05-14T22:58:30.190Z,99268.38
2023-05-14T23:00:57.282Z,99265.31
2023-05-14T23:03:24.028Z,99265.44
2023-05-14T23:05:52.310Z,99256.06
2023-05-14T23:08:19.024Z,99254.97
2023-05-14T23:10:45.816Z,99256.16
2023-05-14T23:13:12.661Z,99253.78
2023-05-14T23:15:39.603Z,99254.16
2023-05-14T23:18:07.828Z,99257.22
2023-05-14T23:20:34.762Z,99259.72
2023-05-14T23:23:01.487Z,99264.72
2023-05-14T23:25:28.292Z,99266.84
2023-05-14T23:27:55.076Z,99264.22
2023-05-14T23:30:22.168Z,99265.28
2023-05-14T23:32:48.932Z,99258.25
2023-05-14T23:35:16.030Z,99256.94
2023-05-14T23:37:47.600Z,99253.38
2023-05-14T23:40:14.494Z,99248.88
2023-05-14T23:42:41.474Z,99246.34
2023-05-14T23:45:08.805Z,99245.13
2023-05-14T23:47:35.805Z,99252.19
2023-05-14T23:50:03.156Z,99241.25
2023-05-14T23:52:29.976Z,99234.66
2023-05-14T23:54:56.699Z,99230.94
2023-05-14T23:57:23.474Z,99231.75
2023-05-14T23:59:50.217Z,99230.31
